sensor_id;sensor_type;location;lat;lon;timestamp;P1;durP1;ratioP1;P2;durP2;ratioP2
73452;SDS011;61687;56.232;43.854;2023-04-20T00:00:08;38.50;;;16.90;;
73452;SDS011;61687;56.232;43.854;2023-04-20T00:02:39;38.70;;;16.65;;
73452;SDS011;61687;56.232;43.854;2023-04-20T00:05:06;39.47;;;15.93;;
73452;SDS011;61687;56.232;43.854;2023-04-20T00:07:34;38.90;;;16.10;;
73452;SDS011;61687;56.232;43.854;2023-04-20T00:10:01;37.33;;;16.37;;
73452;SDS011;61687;56.232;43.854;2023-04-20T00:12:30;41.63;;;16.77;;
73452;SDS011;61687;56.232;43.854;2023-04-20T00:14:56;38.10;;;19.05;;
73452;SDS011;61687;56.232;43.854;2023-04-20T00:17:22;40.58;;;18.45;;
73452;SDS011;61687;56.232;43.854;2023-04-20T00:19:48;39.22;;;19.75;;
73452;SDS011;61687;56.232;43.854;2023-04-20T00:22:14;43.07;;;20.83;;
73452;SDS011;61687;56.232;43.854;2023-04-20T00:24:41;47.63;;;19.38;;
73452;SDS011;61687;56.232;43.854;2023-04-20T00:27:07;37.17;;;18.08;;
73452;SDS011;61687;56.232;43.854;2023-04-20T00:29:33;44.55;;;18.65;;
73452;SDS011;61687;56.232;43.854;2023-04-20T00:31:58;41.13;;;18.97;;
73452;SDS011;61687;56.232;43.854;2023-04-20T00:34:24;43.38;;;19.05;;
73452;SDS011;61687;56.232;43.854;2023-04-20T00:36:51;39.35;;;18.63;;
73452;SDS011;61687;56.232;43.854;2023-04-20T00:39:17;52.08;;;19.70;;
73452;SDS011;61687;56.232;43.854;2023-04-20T00:41:44;55.20;;;20.77;;
73452;SDS011;61687;56.232;43.854;2023-04-20T00:44:10;46.90;;;19.60;;
73452;SDS011;61687;56.232;43.854;2023-04-20T00:46:39;58.78;;;21.55;;
73452;SDS011;61687;56.232;43.854;2023-04-20T00:49:05;48.00;;;21.33;;
73452;SDS011;61687;56.232;43.854;2023-04-20T00:51:33;52.17;;;21.65;;
73452;SDS011;61687;56.232;43.854;2023-04-20T00:54:00;50.42;;;21.10;;
73452;SDS011;61687;56.232;43.854;2023-04-20T00:56:26;57.92;;;20.00;;
73452;SDS011;61687;56.232;43.854;2023-04-20T00:58:52;49.90;;;22.30;;
73452;SDS011;61687;56.232;43.854;2023-04-20T01:01:18;45.70;;;21.13;;
73452;SDS011;61687;56.232;43.854;2023-04-20T01:03:45;47.03;;;22.05;;
73452;SDS011;61687;56.232;43.854;2023-04-20T01:06:12;55.07;;;22.47;;
73452;SDS011;61687;56.232;43.854;2023-04-20T01:08:46;49.77;;;23.33;;
73452;SDS011;61687;56.232;43.854;2023-04-20T01:11:15;48.47;;;22.33;;
73452;SDS011;61687;56.232;43.854;2023-04-20T01:13:41;54.00;;;23.70;;
73452;SDS011;61687;56.232;43.854;2023-04-20T01:16:08;48.15;;;21.65;;
73452;SDS011;61687;56.232;43.854;2023-04-20T01:18:48;59.10;;;23.20;;
73452;SDS011;61687;56.232;43.854;2023-04-20T01:21:16;51.78;;;23.10;;
73452;SDS011;61687;56.232;43.854;2023-04-20T01:23:44;47.15;;;22.23;;
73452;SDS011;61687;56.232;43.854;2023-04-20T01:26:12;58.80;;;24.95;;
73452;SDS011;61687;56.232;43.854;2023-04-20T01:28:41;57.90;;;25.25;;
73452;SDS011;61687;56.232;43.854;2023-04-20T01:31:08;59.90;;;24.30;;
73452;SDS011;61687;56.232;43.854;2023-04-20T01:33:36;56.05;;;23.73;;
73452;SDS011;61687;56.232;43.854;2023-04-20T01:36:02;52.90;;;25.33;;
73452;SDS011;61687;56.232;43.854;2023-04-20T01:38:29;60.33;;;24.20;;
73452;SDS011;61687;56.232;43.854;2023-04-20T01:41:00;63.80;;;26.60;;
73452;SDS011;61687;56.232;43.854;2023-04-20T01:43:29;65.72;;;27.25;;
73452;SDS011;61687;56.232;43.854;2023-04-20T01:45:56;64.20;;;26.73;;
73452;SDS011;61687;56.232;43.854;2023-04-20T01:48:23;58.00;;;25.30;;
73452;SDS011;61687;56.232;43.854;2023-04-20T01:50:50;59.33;;;26.08;;
73452;SDS011;61687;56.232;43.854;2023-04-20T01:53:17;60.65;;;27.77;;
73452;SDS011;61687;56.232;43.854;2023-04-20T01:55:46;58.90;;;27.25;;
73452;SDS011;61687;56.232;43.854;2023-04-20T01:58:13;61.67;;;27.48;;
73452;SDS011;61687;56.232;43.854;2023-04-20T02:00:40;65.35;;;27.98;;
73452;SDS011;61687;56.232;43.854;2023-04-20T02:03:06;65.38;;;27.67;;
73452;SDS011;61687;56.232;43.854;2023-04-20T02:05:32;62.78;;;29.52;;
73452;SDS011;61687;56.232;43.854;2023-04-20T02:07:58;60.57;;;28.83;;
73452;SDS011;61687;56.232;43.854;2023-04-20T02:10:24;58.22;;;27.60;;
73452;SDS011;61687;56.232;43.854;2023-04-20T02:12:51;62.63;;;28.33;;
73452;SDS011;61687;56.232;43.854;2023-04-20T02:15:19;58.03;;;27.35;;
73452;SDS011;61687;56.232;43.854;2023-04-20T02:17:45;61.65;;;29.00;;
73452;SDS011;61687;56.232;43.854;2023-04-20T02:20:18;70.63;;;30.05;;
73452;SDS011;61687;56.232;43.854;2023-04-20T02:22:45;69.80;;;29.15;;
73452;SDS011;61687;56.232;43.854;2023-04-20T02:25:11;71.32;;;30.98;;
73452;SDS011;61687;56.232;43.854;2023-04-20T02:27:38;62.70;;;31.58;;
73452;SDS011;61687;56.232;43.854;2023-04-20T02:30:04;60.70;;;30.30;;
73452;SDS011;61687;56.232;43.854;2023-04-20T02:32:32;66.17;;;28.53;;
73452;SDS011;61687;56.232;43.854;2023-04-20T02:35:00;66.82;;;30.67;;
73452;SDS011;61687;56.232;43.854;2023-04-20T02:37:26;65.57;;;28.52;;
73452;SDS011;61687;56.232;43.854;2023-04-20T02:39:52;67.15;;;29.65;;
73452;SDS011;61687;56.232;43.854;2023-04-20T02:42:18;66.10;;;28.67;;
73452;SDS011;61687;56.232;43.854;2023-04-20T02:44:46;64.25;;;27.90;;
73452;SDS011;61687;56.232;43.854;2023-04-20T02:47:13;53.40;;;27.88;;
73452;SDS011;61687;56.232;43.854;2023-04-20T02:49:39;56.92;;;27.92;;
73452;SDS011;61687;56.232;43.854;2023-04-20T02:52:06;59.63;;;29.05;;
73452;SDS011;61687;56.232;43.854;2023-04-20T02:54:32;60.00;;;28.60;;
73452;SDS011;61687;56.232;43.854;2023-04-20T02:56:59;70.75;;;29.35;;
73452;SDS011;61687;56.232;43.854;2023-04-20T02:59:26;66.65;;;30.15;;
73452;SDS011;61687;56.232;43.854;2023-04-20T03:02:18;64.05;;;31.20;;
73452;SDS011;61687;56.232;43.854;2023-04-20T03:04:44;69.95;;;35.78;;
73452;SDS011;61687;56.232;43.854;2023-04-20T03:07:17;65.03;;;30.70;;
73452;SDS011;61687;56.232;43.854;2023-04-20T03:09:46;74.53;;;30.45;;
73452;SDS011;61687;56.232;43.854;2023-04-20T03:12:12;61.55;;;31.05;;
73452;SDS011;61687;56.232;43.854;2023-04-20T03:14:57;63.20;;;30.25;;
73452;SDS011;61687;56.232;43.854;2023-04-20T03:17:43;72.28;;;31.63;;
73452;SDS011;61687;56.232;43.854;2023-04-20T03:20:09;77.70;;;29.07;;
73452;SDS011;61687;56.232;43.854;2023-04-20T03:22:36;67.82;;;28.73;;
73452;SDS011;61687;56.232;43.854;2023-04-20T03:25:04;76.15;;;29.50;;
73452;SDS011;61687;56.232;43.854;2023-04-20T03:28:09;56.15;;;24.25;;
73452;SDS011;61687;56.232;43.854;2023-04-20T03:30:37;66.80;;;26.15;;
73452;SDS011;61687;56.232;43.854;2023-04-20T03:33:08;63.83;;;26.30;;
73452;SDS011;61687;56.232;43.854;2023-04-20T03:35:34;56.92;;;23.52;;
73452;SDS011;61687;56.232;43.854;2023-04-20T03:38:03;52.78;;;23.95;;
73452;SDS011;61687;56.232;43.854;2023-04-20T03:40:30;59.22;;;24.67;;
73452;SDS011;61687;56.232;43.854;2023-04-20T03:42:56;56.10;;;22.23;;
73452;SDS011;61687;56.232;43.854;2023-04-20T03:45:22;68.23;;;24.33;;
73452;SDS011;61687;56.232;43.854;2023-04-20T03:47:48;61.20;;;27.20;;
73452;SDS011;61687;56.232;43.854;2023-04-20T03:50:15;78.22;;;26.70;;
73452;SDS011;61687;56.232;43.854;2023-04-20T03:52:41;62.28;;;24.92;;
73452;SDS011;61687;56.232;43.854;2023-04-20T03:55:09;57.23;;;24.47;;
73452;SDS011;61687;56.232;43.854;2023-04-20T03:57:38;63.63;;;25.50;;
73452;SDS011;61687;56.232;43.854;2023-04-20T04:00:06;70.43;;;25.13;;
73452;SDS011;61687;56.232;43.854;2023-04-20T04:02:44;52.67;;;23.15;;
73452;SDS011;61687;56.232;43.854;2023-04-20T04:05:11;58.10;;;23.17;;
73452;SDS011;61687;56.232;43.854;2023-04-20T04:07:37;55.63;;;23.17;;
73452;SDS011;61687;56.232;43.854;2023-04-20T04:10:03;55.47;;;22.67;;
73452;SDS011;61687;56.232;43.854;2023-04-20T04:12:31;55.50;;;23.35;;
73452;SDS011;61687;56.232;43.854;2023-04-20T04:14:57;60.15;;;24.00;;
73452;SDS011;61687;56.232;43.854;2023-04-20T04:17:26;55.83;;;23.10;;
73452;SDS011;61687;56.232;43.854;2023-04-20T04:19:54;57.60;;;24.50;;
73452;SDS011;61687;56.232;43.854;2023-04-20T04:22:20;49.00;;;23.23;;
73452;SDS011;61687;56.232;43.854;2023-04-20T04:25:06;53.25;;;24.08;;
73452;SDS011;61687;56.232;43.854;2023-04-20T04:27:32;65.70;;;25.35;;
73452;SDS011;61687;56.232;43.854;2023-04-20T04:30:00;68.38;;;25.05;;
73452;SDS011;61687;56.232;43.854;2023-04-20T04:32:30;53.93;;;23.90;;
73452;SDS011;61687;56.232;43.854;2023-04-20T04:34:59;54.47;;;24.48;;
73452;SDS011;61687;56.232;43.854;2023-04-20T04:37:26;40.53;;;18.42;;
73452;SDS011;61687;56.232;43.854;2023-04-20T04:39:54;40.28;;;15.30;;
73452;SDS011;61687;56.232;43.854;2023-04-20T04:42:26;46.03;;;13.77;;
73452;SDS011;61687;56.232;43.854;2023-04-20T04:44:52;25.13;;;14.20;;
73452;SDS011;61687;56.232;43.854;2023-04-20T04:47:26;33.92;;;13.05;;
73452;SDS011;61687;56.232;43.854;2023-04-20T04:49:56;47.53;;;17.05;;
73452;SDS011;61687;56.232;43.854;2023-04-20T04:52:24;39.78;;;16.80;;
73452;SDS011;61687;56.232;43.854;2023-04-20T04:54:50;33.45;;;14.00;;
73452;SDS011;61687;56.232;43.854;2023-04-20T04:57:16;28.43;;;13.33;;
73452;SDS011;61687;56.232;43.854;2023-04-20T04:59:44;31.65;;;14.48;;
73452;SDS011;61687;56.232;43.854;2023-04-20T05:02:11;37.22;;;15.27;;
73452;SDS011;61687;56.232;43.854;2023-04-20T05:04:38;47.00;;;17.20;;
73452;SDS011;61687;56.232;43.854;2023-04-20T05:07:04;42.85;;;18.23;;
73452;SDS011;61687;56.232;43.854;2023-04-20T05:09:30;35.37;;;16.97;;
73452;SDS011;61687;56.232;43.854;2023-04-20T05:11:58;52.33;;;15.90;;
73452;SDS011;61687;56.232;43.854;2023-04-20T05:14:27;37.60;;;14.70;;
73452;SDS011;61687;56.232;43.854;2023-04-20T05:16:53;34.58;;;14.20;;
73452;SDS011;61687;56.232;43.854;2023-04-20T05:19:19;76.03;;;15.43;;
73452;SDS011;61687;56.232;43.854;2023-04-20T05:21:45;41.88;;;19.00;;
73452;SDS011;61687;56.232;43.854;2023-04-20T05:24:11;47.58;;;21.73;;
73452;SDS011;61687;56.232;43.854;2023-04-20T05:26:37;45.30;;;20.45;;
73452;SDS011;61687;56.232;43.854;2023-04-20T05:29:04;33.03;;;13.47;;
73452;SDS011;61687;56.232;43.854;2023-04-20T05:31:30;29.20;;;9.98;;
73452;SDS011;61687;56.232;43.854;2023-04-20T05:33:57;20.33;;;9.30;;
73452;SDS011;61687;56.232;43.854;2023-04-20T05:36:23;21.17;;;9.52;;
73452;SDS011;61687;56.232;43.854;2023-04-20T05:38:50;17.50;;;9.65;;
73452;SDS011;61687;56.232;43.854;2023-04-20T05:41:16;35.13;;;10.87;;
73452;SDS011;61687;56.232;43.854;2023-04-20T05:43:42;15.20;;;8.90;;
73452;SDS011;61687;56.232;43.854;2023-04-20T05:46:08;21.97;;;9.60;;
73452;SDS011;61687;56.232;43.854;2023-04-20T05:48:34;20.02;;;8.30;;
73452;SDS011;61687;56.232;43.854;2023-04-20T05:51:00;16.52;;;7.95;;
73452;SDS011;61687;56.232;43.854;2023-04-20T05:53:26;14.23;;;7.50;;
73452;SDS011;61687;56.232;43.854;2023-04-20T05:55:52;14.43;;;7.13;;
73452;SDS011;61687;56.232;43.854;2023-04-20T05:58:18;21.63;;;8.38;;
73452;SDS011;61687;56.232;43.854;2023-04-20T06:00:44;17.70;;;7.78;;
73452;SDS011;61687;56.232;43.854;2023-04-20T06:03:10;15.45;;;7.65;;
73452;SDS011;61687;56.232;43.854;2023-04-20T06:05:37;30.10;;;8.30;;
73452;SDS011;61687;56.232;43.854;2023-04-20T06:08:03;18.60;;;7.32;;
73452;SDS011;61687;56.232;43.854;2023-04-20T06:10:29;13.63;;;8.35;;
73452;SDS011;61687;56.232;43.854;2023-04-20T06:12:57;15.95;;;7.47;;
73452;SDS011;61687;56.232;43.854;2023-04-20T06:15:22;12.18;;;7.50;;
73452;SDS011;61687;56.232;43.854;2023-04-20T06:17:48;13.80;;;7.67;;
73452;SDS011;61687;56.232;43.854;2023-04-20T06:20:15;11.00;;;6.88;;
73452;SDS011;61687;56.232;43.854;2023-04-20T06:22:44;14.27;;;7.53;;
73452;SDS011;61687;56.232;43.854;2023-04-20T06:25:11;15.32;;;7.00;;
73452;SDS011;61687;56.232;43.854;2023-04-20T06:27:38;9.90;;;6.68;;
73452;SDS011;61687;56.232;43.854;2023-04-20T06:30:04;11.13;;;5.90;;
73452;SDS011;61687;56.232;43.854;2023-04-20T06:32:31;9.55;;;6.13;;
73452;SDS011;61687;56.232;43.854;2023-04-20T06:34:57;17.05;;;7.50;;
73452;SDS011;61687;56.232;43.854;2023-04-20T06:37:23;10.30;;;6.25;;
73452;SDS011;61687;56.232;43.854;2023-04-20T06:39:55;19.40;;;6.20;;
73452;SDS011;61687;56.232;43.854;2023-04-20T06:42:21;13.40;;;6.30;;
73452;SDS011;61687;56.232;43.854;2023-04-20T06:44:48;9.82;;;5.55;;
73452;SDS011;61687;56.232;43.854;2023-04-20T06:47:14;15.55;;;6.13;;
73452;SDS011;61687;56.232;43.854;2023-04-20T06:49:40;11.23;;;5.35;;
73452;SDS011;61687;56.232;43.854;2023-04-20T06:52:07;11.07;;;5.40;;
73452;SDS011;61687;56.232;43.854;2023-04-20T06:54:33;10.93;;;5.07;;
73452;SDS011;61687;56.232;43.854;2023-04-20T06:56:59;11.38;;;5.05;;
73452;SDS011;61687;56.232;43.854;2023-04-20T06:59:26;8.70;;;4.50;;
73452;SDS011;61687;56.232;43.854;2023-04-20T07:01:51;14.60;;;4.80;;
73452;SDS011;61687;56.232;43.854;2023-04-20T07:04:17;9.43;;;4.90;;
73452;SDS011;61687;56.232;43.854;2023-04-20T07:06:43;8.05;;;4.55;;
73452;SDS011;61687;56.232;43.854;2023-04-20T07:09:10;12.73;;;5.05;;
73452;SDS011;61687;56.232;43.854;2023-04-20T07:11:36;11.20;;;4.90;;
73452;SDS011;61687;56.232;43.854;2023-04-20T07:14:02;10.10;;;4.40;;
73452;SDS011;61687;56.232;43.854;2023-04-20T07:16:28;7.53;;;4.88;;
73452;SDS011;61687;56.232;43.854;2023-04-20T07:18:54;13.75;;;5.10;;
73452;SDS011;61687;56.232;43.854;2023-04-20T07:21:20;17.05;;;5.13;;
73452;SDS011;61687;56.232;43.854;2023-04-20T07:23:46;15.43;;;5.00;;
73452;SDS011;61687;56.232;43.854;2023-04-20T07:26:12;18.90;;;4.70;;
73452;SDS011;61687;56.232;43.854;2023-04-20T07:28:38;13.02;;;4.50;;
73452;SDS011;61687;56.232;43.854;2023-04-20T07:31:04;11.73;;;4.35;;
73452;SDS011;61687;56.232;43.854;2023-04-20T07:33:30;12.47;;;4.57;;
73452;SDS011;61687;56.232;43.854;2023-04-20T07:35:56;8.90;;;4.88;;
73452;SDS011;61687;56.232;43.854;2023-04-20T07:38:22;6.85;;;4.25;;
73452;SDS011;61687;56.232;43.854;2023-04-20T07:40:48;15.52;;;4.72;;
73452;SDS011;61687;56.232;43.854;2023-04-20T07:43:14;7.70;;;3.80;;
73452;SDS011;61687;56.232;43.854;2023-04-20T07:45:40;11.18;;;4.53;;
73452;SDS011;61687;56.232;43.854;2023-04-20T07:48:07;7.00;;;3.50;;
73452;SDS011;61687;56.232;43.854;2023-04-20T07:50:36;8.20;;;3.83;;
73452;SDS011;61687;56.232;43.854;2023-04-20T07:53:03;8.43;;;3.93;;
73452;SDS011;61687;56.232;43.854;2023-04-20T07:55:29;7.30;;;3.92;;
73452;SDS011;61687;56.232;43.854;2023-04-20T07:57:56;8.23;;;4.72;;
73452;SDS011;61687;56.232;43.854;2023-04-20T08:00:22;8.75;;;4.28;;
73452;SDS011;61687;56.232;43.854;2023-04-20T08:02:49;10.13;;;3.67;;
73452;SDS011;61687;56.232;43.854;2023-04-20T08:05:15;9.90;;;4.17;;
73452;SDS011;61687;56.232;43.854;2023-04-20T08:07:41;8.18;;;4.60;;
73452;SDS011;61687;56.232;43.854;2023-04-20T08:10:07;10.90;;;3.40;;
73452;SDS011;61687;56.232;43.854;2023-04-20T08:12:34;10.73;;;4.32;;
73452;SDS011;61687;56.232;43.854;2023-04-20T08:15:01;9.33;;;4.00;;
73452;SDS011;61687;56.232;43.854;2023-04-20T08:17:33;8.88;;;3.85;;
73452;SDS011;61687;56.232;43.854;2023-04-20T08:19:59;6.75;;;3.90;;
73452;SDS011;61687;56.232;43.854;2023-04-20T08:22:25;8.57;;;3.25;;
73452;SDS011;61687;56.232;43.854;2023-04-20T08:24:58;5.95;;;3.42;;
73452;SDS011;61687;56.232;43.854;2023-04-20T08:27:24;12.17;;;3.80;;
73452;SDS011;61687;56.232;43.854;2023-04-20T08:29:50;6.00;;;4.07;;
73452;SDS011;61687;56.232;43.854;2023-04-20T08:32:16;9.65;;;4.78;;
73452;SDS011;61687;56.232;43.854;2023-04-20T08:34:47;5.78;;;3.78;;
73452;SDS011;61687;56.232;43.854;2023-04-20T08:37:14;5.85;;;3.50;;
73452;SDS011;61687;56.232;43.854;2023-04-20T08:39:40;54.77;;;5.57;;
73452;SDS011;61687;56.232;43.854;2023-04-20T08:42:06;7.78;;;3.97;;
73452;SDS011;61687;56.232;43.854;2023-04-20T08:44:32;8.90;;;4.55;;
73452;SDS011;61687;56.232;43.854;2023-04-20T08:46:58;12.50;;;3.88;;
73452;SDS011;61687;56.232;43.854;2023-04-20T08:49:24;11.75;;;4.50;;
73452;SDS011;61687;56.232;43.854;2023-04-20T08:51:52;9.10;;;4.30;;
73452;SDS011;61687;56.232;43.854;2023-04-20T08:54:18;8.32;;;3.92;;
73452;SDS011;61687;56.232;43.854;2023-04-20T08:56:45;6.32;;;3.95;;
73452;SDS011;61687;56.232;43.854;2023-04-20T08:59:12;9.23;;;4.03;;
73452;SDS011;61687;56.232;43.854;2023-04-20T09:01:40;9.63;;;4.47;;
73452;SDS011;61687;56.232;43.854;2023-04-20T09:06:46;8.73;;;4.00;;
73452;SDS011;61687;56.232;43.854;2023-04-20T09:09:16;8.35;;;4.53;;
73452;SDS011;61687;56.232;43.854;2023-04-20T09:11:47;9.15;;;4.55;;
73452;SDS011;61687;56.232;43.854;2023-04-20T09:14:24;11.50;;;5.20;;
73452;SDS011;61687;56.232;43.854;2023-04-20T09:16:51;8.27;;;5.18;;
73452;SDS011;61687;56.232;43.854;2023-04-20T09:19:27;9.55;;;4.90;;
73452;SDS011;61687;56.232;43.854;2023-04-20T09:21:54;12.93;;;5.28;;
73452;SDS011;61687;56.232;43.854;2023-04-20T09:24:23;9.13;;;4.32;;
73452;SDS011;61687;56.232;43.854;2023-04-20T09:26:55;10.67;;;4.93;;
73452;SDS011;61687;56.232;43.854;2023-04-20T09:29:21;10.82;;;4.50;;
73452;SDS011;61687;56.232;43.854;2023-04-20T09:31:49;15.10;;;5.40;;
73452;SDS011;61687;56.232;43.854;2023-04-20T09:34:16;12.13;;;6.25;;
73452;SDS011;61687;56.232;43.854;2023-04-20T09:36:44;15.98;;;6.07;;
73452;SDS011;61687;56.232;43.854;2023-04-20T09:39:21;9.40;;;5.20;;
73452;SDS011;61687;56.232;43.854;2023-04-20T09:41:49;10.32;;;4.65;;
73452;SDS011;61687;56.232;43.854;2023-04-20T09:44:16;11.95;;;5.32;;
73452;SDS011;61687;56.232;43.854;2023-04-20T09:46:43;8.43;;;4.15;;
73452;SDS011;61687;56.232;43.854;2023-04-20T09:49:10;7.18;;;4.18;;
73452;SDS011;61687;56.232;43.854;2023-04-20T09:51:39;14.70;;;4.90;;
73452;SDS011;61687;56.232;43.854;2023-04-20T09:54:07;6.95;;;4.00;;
73452;SDS011;61687;56.232;43.854;2023-04-20T09:56:33;35.97;;;5.75;;
73452;SDS011;61687;56.232;43.854;2023-04-20T09:59:00;8.52;;;3.78;;
73452;SDS011;61687;56.232;43.854;2023-04-20T10:01:32;6.85;;;4.22;;
73452;SDS011;61687;56.232;43.854;2023-04-20T10:04:01;7.53;;;4.27;;
73452;SDS011;61687;56.232;43.854;2023-04-20T10:06:29;7.97;;;4.13;;
73452;SDS011;61687;56.232;43.854;2023-04-20T10:08:57;10.68;;;4.43;;
73452;SDS011;61687;56.232;43.854;2023-04-20T10:11:30;10.32;;;4.90;;
73452;SDS011;61687;56.232;43.854;2023-04-20T10:14:22;7.10;;;4.95;;
73452;SDS011;61687;56.232;43.854;2023-04-20T10:16:58;7.20;;;5.13;;
73452;SDS011;61687;56.232;43.854;2023-04-20T10:19:43;10.68;;;6.05;;
73452;SDS011;61687;56.232;43.854;2023-04-20T10:22:11;9.65;;;5.90;;
73452;SDS011;61687;56.232;43.854;2023-04-20T10:24:49;10.90;;;5.85;;
73452;SDS011;61687;56.232;43.854;2023-04-20T10:27:18;16.80;;;5.32;;
73452;SDS011;61687;56.232;43.854;2023-04-20T10:29:46;8.07;;;4.73;;
73452;SDS011;61687;56.232;43.854;2023-04-20T10:32:25;8.65;;;4.72;;
73452;SDS011;61687;56.232;43.854;2023-04-20T10:35:00;6.72;;;4.15;;
73452;SDS011;61687;56.232;43.854;2023-04-20T10:37:31;9.57;;;4.30;;
73452;SDS011;61687;56.232;43.854;2023-04-20T10:39:58;8.60;;;5.10;;
73452;SDS011;61687;56.232;43.854;2023-04-20T10:42:24;9.13;;;4.90;;
73452;SDS011;61687;56.232;43.854;2023-04-20T10:44:56;17.80;;;4.72;;
73452;SDS011;61687;56.232;43.854;2023-04-20T10:47:26;10.57;;;4.72;;
73452;SDS011;61687;56.232;43.854;2023-04-20T10:52:39;8.45;;;4.63;;
73452;SDS011;61687;56.232;43.854;2023-04-20T10:55:07;8.93;;;5.40;;
73452;SDS011;61687;56.232;43.854;2023-04-20T10:57:43;8.60;;;4.93;;
73452;SDS011;61687;56.232;43.854;2023-04-20T11:00:23;15.15;;;4.50;;
73452;SDS011;61687;56.232;43.854;2023-04-20T11:02:51;24.88;;;5.90;;
73452;SDS011;61687;56.232;43.854;2023-04-20T11:05:24;9.63;;;5.03;;
73452;SDS011;61687;56.232;43.854;2023-04-20T11:07:58;8.20;;;4.90;;
73452;SDS011;61687;56.232;43.854;2023-04-20T11:10:41;6.70;;;4.75;;
73452;SDS011;61687;56.232;43.854;2023-04-20T11:13:22;8.80;;;5.13;;
73452;SDS011;61687;56.232;43.854;2023-04-20T11:15:50;9.32;;;5.30;;
73452;SDS011;61687;56.232;43.854;2023-04-20T11:18:16;8.48;;;5.50;;
73452;SDS011;61687;56.232;43.854;2023-04-20T11:20:50;10.20;;;5.47;;
73452;SDS011;61687;56.232;43.854;2023-04-20T11:23:20;10.75;;;5.07;;
73452;SDS011;61687;56.232;43.854;2023-04-20T11:25:54;8.57;;;5.55;;
73452;SDS011;61687;56.232;43.854;2023-04-20T11:28:21;7.00;;;4.75;;
73452;SDS011;61687;56.232;43.854;2023-04-20T11:30:48;7.88;;;5.05;;
73452;SDS011;61687;56.232;43.854;2023-04-20T11:33:27;9.40;;;4.80;;
73452;SDS011;61687;56.232;43.854;2023-04-20T11:35:56;8.30;;;5.13;;
73452;SDS011;61687;56.232;43.854;2023-04-20T11:38:26;7.65;;;4.40;;
73452;SDS011;61687;56.232;43.854;2023-04-20T11:40:56;7.15;;;4.53;;
73452;SDS011;61687;56.232;43.854;2023-04-20T11:43:24;7.85;;;5.43;;
73452;SDS011;61687;56.232;43.854;2023-04-20T11:45:50;9.63;;;5.57;;
73452;SDS011;61687;56.232;43.854;2023-04-20T11:48:16;9.18;;;5.03;;
73452;SDS011;61687;56.232;43.854;2023-04-20T11:50:44;10.48;;;4.93;;
73452;SDS011;61687;56.232;43.854;2023-04-20T11:53:10;8.23;;;5.38;;
73452;SDS011;61687;56.232;43.854;2023-04-20T11:55:39;8.20;;;4.75;;
73452;SDS011;61687;56.232;43.854;2023-04-20T11:58:06;10.80;;;5.57;;
73452;SDS011;61687;56.232;43.854;2023-04-20T12:00:33;9.15;;;5.13;;
73452;SDS011;61687;56.232;43.854;2023-04-20T12:02:59;9.32;;;4.50;;
73452;SDS011;61687;56.232;43.854;2023-04-20T12:05:27;10.65;;;5.13;;
73452;SDS011;61687;56.232;43.854;2023-04-20T12:07:53;12.30;;;5.50;;
73452;SDS011;61687;56.232;43.854;2023-04-20T12:10:19;9.03;;;5.03;;
73452;SDS011;61687;56.232;43.854;2023-04-20T12:12:45;6.93;;;4.75;;
73452;SDS011;61687;56.232;43.854;2023-04-20T12:15:11;9.18;;;5.97;;
73452;SDS011;61687;56.232;43.854;2023-04-20T12:17:37;17.52;;;6.82;;
73452;SDS011;61687;56.232;43.854;2023-04-20T12:20:03;13.27;;;5.77;;
73452;SDS011;61687;56.232;43.854;2023-04-20T12:22:33;19.23;;;6.10;;
73452;SDS011;61687;56.232;43.854;2023-04-20T12:24:59;11.88;;;5.47;;
73452;SDS011;61687;56.232;43.854;2023-04-20T12:27:26;12.43;;;5.40;;
73452;SDS011;61687;56.232;43.854;2023-04-20T12:29:52;12.25;;;6.03;;
73452;SDS011;61687;56.232;43.854;2023-04-20T12:32:18;10.33;;;5.30;;
73452;SDS011;61687;56.232;43.854;2023-04-20T12:34:44;13.15;;;5.82;;
73452;SDS011;61687;56.232;43.854;2023-04-20T12:37:10;11.32;;;6.00;;
73452;SDS011;61687;56.232;43.854;2023-04-20T12:39:36;19.77;;;5.40;;
73452;SDS011;61687;56.232;43.854;2023-04-20T12:42:02;10.48;;;5.20;;
73452;SDS011;61687;56.232;43.854;2023-04-20T12:44:28;9.47;;;4.50;;
73452;SDS011;61687;56.232;43.854;2023-04-20T12:46:54;8.80;;;4.53;;
73452;SDS011;61687;56.232;43.854;2023-04-20T12:49:20;9.05;;;5.15;;
73452;SDS011;61687;56.232;43.854;2023-04-20T12:51:46;12.18;;;5.47;;
73452;SDS011;61687;56.232;43.854;2023-04-20T12:54:12;14.25;;;4.50;;
73452;SDS011;61687;56.232;43.854;2023-04-20T12:56:38;11.47;;;4.97;;
73452;SDS011;61687;56.232;43.854;2023-04-20T12:59:04;8.13;;;4.38;;
73452;SDS011;61687;56.232;43.854;2023-04-20T13:01:30;8.07;;;4.68;;
73452;SDS011;61687;56.232;43.854;2023-04-20T13:03:56;8.23;;;4.30;;
73452;SDS011;61687;56.232;43.854;2023-04-20T13:06:22;12.02;;;4.68;;
73452;SDS011;61687;56.232;43.854;2023-04-20T13:08:48;7.85;;;4.95;;
73452;SDS011;61687;56.232;43.854;2023-04-20T13:11:15;8.35;;;5.18;;
73452;SDS011;61687;56.232;43.854;2023-04-20T13:13:42;8.53;;;5.73;;
73452;SDS011;61687;56.232;43.854;2023-04-20T13:16:08;9.90;;;5.20;;
73452;SDS011;61687;56.232;43.854;2023-04-20T13:18:35;7.07;;;4.72;;
73452;SDS011;61687;56.232;43.854;2023-04-20T13:21:01;9.50;;;5.10;;
73452;SDS011;61687;56.232;43.854;2023-04-20T13:23:27;10.55;;;4.80;;
73452;SDS011;61687;56.232;43.854;2023-04-20T13:25:53;8.77;;;4.80;;
73452;SDS011;61687;56.232;43.854;2023-04-20T13:28:21;11.10;;;4.72;;
73452;SDS011;61687;56.232;43.854;2023-04-20T13:30:47;8.57;;;4.97;;
73452;SDS011;61687;56.232;43.854;2023-04-20T13:33:13;14.98;;;5.25;;
73452;SDS011;61687;56.232;43.854;2023-04-20T13:35:38;9.67;;;5.10;;
73452;SDS011;61687;56.232;43.854;2023-04-20T13:38:05;10.35;;;4.90;;
73452;SDS011;61687;56.232;43.854;2023-04-20T13:40:31;18.30;;;5.90;;
73452;SDS011;61687;56.232;43.854;2023-04-20T13:42:57;13.20;;;4.57;;
73452;SDS011;61687;56.232;43.854;2023-04-20T13:45:23;10.07;;;5.07;;
73452;SDS011;61687;56.232;43.854;2023-04-20T13:47:49;9.07;;;4.80;;
73452;SDS011;61687;56.232;43.854;2023-04-20T13:50:15;11.77;;;4.95;;
73452;SDS011;61687;56.232;43.854;2023-04-20T13:52:41;22.15;;;5.18;;
73452;SDS011;61687;56.232;43.854;2023-04-20T13:55:07;21.70;;;5.30;;
73452;SDS011;61687;56.232;43.854;2023-04-20T13:57:34;11.90;;;4.90;;
73452;SDS011;61687;56.232;43.854;2023-04-20T14:00:00;9.70;;;5.43;;
73452;SDS011;61687;56.232;43.854;2023-04-20T14:02:28;6.90;;;4.93;;
73452;SDS011;61687;56.232;43.854;2023-04-20T14:04:54;14.77;;;5.15;;
73452;SDS011;61687;56.232;43.854;2023-04-20T14:07:21;22.58;;;5.07;;
73452;SDS011;61687;56.232;43.854;2023-04-20T14:09:47;10.15;;;5.13;;
73452;SDS011;61687;56.232;43.854;2023-04-20T14:12:13;7.67;;;5.03;;
73452;SDS011;61687;56.232;43.854;2023-04-20T14:14:39;9.73;;;4.82;;
73452;SDS011;61687;56.232;43.854;2023-04-20T14:17:05;9.27;;;5.05;;
73452;SDS011;61687;56.232;43.854;2023-04-20T14:19:31;10.68;;;4.40;;
73452;SDS011;61687;56.232;43.854;2023-04-20T14:21:57;7.60;;;4.35;;
73452;SDS011;61687;56.232;43.854;2023-04-20T14:24:23;14.03;;;5.13;;
73452;SDS011;61687;56.232;43.854;2023-04-20T14:26:50;10.85;;;5.05;;
73452;SDS011;61687;56.232;43.854;2023-04-20T14:29:16;12.23;;;5.75;;